Aérodrome :
LOGIN :

S'inscrire | Disclaimer

   EN    FR    IT 

 










Légende :    VFR   VFR Marginal   IFR   IFR Intensif   IFR Très Intensif
Visi : 
Plafond : 
>= 8 km
>= 3000ft
5 à 8 km
1000 à 3000 ft
1500m à 5 km
500 à 1000 ft
800 à 1500m
200 à 500 ft
< 800m
< 200 ft
Symboles :   Orages  Brouillard  Fortes neiges  Fortes précipitations  Vent > 20 kt
SIGMETs :   Divers  Orages  Givrage  Turbulence  Onde Orograph.  Cendres Volcan.






- Altitude de l'aérodrome : 59 ft
- Code IATA : TSF


LIPH - Treviso

DERNIER METAR :
  • 182020Z AUTO 05011KT 9999 RA BKN069/// 16/13 Q1010

METARs EXPIRÉS :
  • 181950Z AUTO 05008KT 9999 -RA SCT029/// BKN067/// 17/14 Q1010 RETS
  • 181920Z AUTO 05007KT 010V070 9999 BKN077/// BKN140/// 18/14 Q1010
  • 181850Z AUTO 06005KT 9999 FEW074/// OVC140/// 17/14 Q1010
  • 181820Z AUTO 09004KT 050V120 9999 SCT080/// BKN140/// 18/14 Q1010
  • 181750Z AUTO 13007KT 9999 BKN150/// 18/13 Q1010

TAF TAF LIPH
Valide du 18 à 18h jusqu'au 19 à 18h UTC


181700Z 1818/1918 09010KT 9999 SCT030
TEMPO 1818/1821 TSRA
BECMG 1822/1824 03015G25KT
TEMPO 1822/1906 4000 SHRA
TEMPO 1912/1918 TSRA



MET'MAP, la Météo Aéronautique d'un coup d'oeil ! - Copyright ORBIFLY Décembre 2007 - Disclaimer

ORBIFLY MET'MAP TEAM :

Programmation & Développement : Alexandra Zaïnal
Sur une idée originale de : Baudouin d'Aumeries
Assistance à la programmation : Marc-Olivier Méhu
Soutien technique & logistique : Manuel Goepfert

Contact : metmap@orbifly.com




SOURCES & CREDITS :

   NOAA